createdAt,value
2023-11-05T00:01:34.506Z,1.20
2023-11-05T00:04:01.918Z,1.40
2023-11-05T00:06:29.347Z,1.30
2023-11-05T00:08:56.884Z,1.50
2023-11-05T00:11:24.257Z,1.10
2023-11-05T00:13:51.595Z,1.13
2023-11-05T00:16:19.052Z,0.93
2023-11-05T00:18:46.496Z,1.27
2023-11-05T00:21:13.960Z,1.02
2023-11-05T00:23:41.527Z,1.02
2023-11-05T00:26:08.929Z,1.10
2023-11-05T00:28:39.459Z,0.98
2023-11-05T00:31:06.867Z,1.23
2023-11-05T00:33:34.426Z,0.75
2023-11-05T00:36:01.973Z,1.38
2023-11-05T00:38:29.530Z,0.93
2023-11-05T00:40:56.854Z,1.02
2023-11-05T00:43:24.340Z,0.98
2023-11-05T00:45:51.723Z,1.23
2023-11-05T00:48:19.222Z,1.10
2023-11-05T00:50:46.632Z,1.08
2023-11-05T00:53:13.906Z,1.10
2023-11-05T00:55:41.513Z,0.98
2023-11-05T00:58:08.922Z,1.17
2023-11-05T01:00:36.486Z,1.50
2023-11-05T01:03:03.952Z,1.50
2023-11-05T01:05:31.404Z,1.20
2023-11-05T01:07:58.756Z,1.23
2023-11-05T01:10:27.311Z,1.13
2023-11-05T01:12:54.775Z,1.20
2023-11-05T01:15:22.249Z,1.33
2023-11-05T01:17:50.304Z,1.10
2023-11-05T01:20:17.911Z,1.10
2023-11-05T01:22:45.468Z,1.58
2023-11-05T01:25:12.896Z,1.48
2023-11-05T01:27:40.314Z,1.55
2023-11-05T01:30:09.714Z,0.85
2023-11-05T01:32:37.237Z,1.23
2023-11-05T01:35:06.142Z,1.20
2023-11-05T01:37:33.726Z,1.42
2023-11-05T01:40:01.318Z,1.33
2023-11-05T01:42:28.708Z,1.70
2023-11-05T01:44:56.240Z,1.75
2023-11-05T01:47:24.021Z,1.50
2023-11-05T01:49:51.689Z,1.27
2023-11-05T01:52:21.502Z,1.40
2023-11-05T01:54:49.250Z,1.63
2023-11-05T01:57:16.717Z,1.92
2023-11-05T01:59:44.973Z,1.25
2023-11-05T02:02:13.121Z,1.55
2023-11-05T02:04:40.893Z,1.52
2023-11-05T02:07:08.352Z,1.52
2023-11-05T02:09:35.907Z,1.10
2023-11-05T02:12:03.814Z,1.13
2023-11-05T02:14:31.428Z,1.15
2023-11-05T02:16:58.932Z,1.38
2023-11-05T02:19:26.461Z,1.40
2023-11-05T02:22:03.040Z,1.35
2023-11-05T02:24:32.418Z,1.58
2023-11-05T02:27:00.838Z,1.20
2023-11-05T02:29:28.137Z,1.45
2023-11-05T02:31:55.608Z,1.30
2023-11-05T02:34:23.156Z,1.48
2023-11-05T02:36:50.740Z,1.40
2023-11-05T02:39:18.055Z,1.30
2023-11-05T02:41:45.526Z,1.77
2023-11-05T02:44:13.524Z,1.30
2023-11-05T02:46:41.337Z,1.15
2023-11-05T02:49:10.333Z,0.85
2023-11-05T02:51:38.422Z,1.13
2023-11-05T02:54:07.002Z,1.02
2023-11-05T02:56:34.571Z,0.88
2023-11-05T02:59:01.941Z,1.05
2023-11-05T03:01:29.469Z,1.08
2023-11-05T03:03:57.063Z,0.90
2023-11-05T03:06:25.529Z,1.10
2023-11-05T03:08:52.988Z,0.88
2023-11-05T03:11:20.260Z,1.00
2023-11-05T03:13:47.558Z,0.88
2023-11-05T03:16:15.139Z,0.95
2023-11-05T03:18:42.537Z,1.25
2023-11-05T03:21:15.158Z,0.65
2023-11-05T03:23:42.873Z,1.00
2023-11-05T03:26:10.800Z,1.02
2023-11-05T03:28:38.301Z,0.60
2023-11-05T03:31:05.740Z,1.00
2023-11-05T03:33:33.753Z,1.10
2023-11-05T03:36:01.409Z,0.90
2023-11-05T03:38:28.789Z,0.75
2023-11-05T03:40:56.205Z,0.80
2023-11-05T03:43:23.859Z,0.77
2023-11-05T03:45:51.188Z,0.88
2023-11-05T03:48:18.501Z,0.88
2023-11-05T03:50:45.988Z,0.75
2023-11-05T03:53:13.557Z,1.00
2023-11-05T03:55:40.999Z,0.90
2023-11-05T03:58:08.445Z,0.70
2023-11-05T04:00:36.716Z,0.50
2023-11-05T04:03:04.127Z,0.80
2023-11-05T04:05:31.583Z,1.00
2023-11-05T04:07:58.912Z,0.60
2023-11-05T04:10:26.308Z,0.82
2023-11-05T04:12:54.234Z,0.82
2023-11-05T04:15:21.665Z,0.60
2023-11-05T04:17:49.132Z,0.50
2023-11-05T04:20:16.526Z,0.75
2023-11-05T04:22:46.474Z,0.63
2023-11-05T04:25:14.297Z,0.70
2023-11-05T04:27:41.669Z,0.70
2023-11-05T04:30:09.456Z,0.70
2023-11-05T04:32:37.357Z,0.60
2023-11-05T04:35:05.384Z,0.70
2023-11-05T04:37:32.699Z,0.70
2023-11-05T04:40:02.508Z,0.57
2023-11-05T04:42:29.982Z,0.77
2023-11-05T04:44:59.261Z,0.52
2023-11-05T04:47:26.546Z,0.50
2023-11-05T04:49:53.919Z,0.80
2023-11-05T04:52:21.432Z,0.63
2023-11-05T04:54:49.159Z,0.80
2023-11-05T04:57:16.869Z,0.65
2023-11-05T04:59:45.877Z,0.47
2023-11-05T05:02:14.151Z,0.68
2023-11-05T05:04:41.691Z,0.50
2023-11-05T05:07:09.107Z,0.60
2023-11-05T05:09:37.660Z,0.47
2023-11-05T05:12:06.444Z,0.52
2023-11-05T05:14:33.938Z,0.60
2023-11-05T05:17:01.790Z,0.55
2023-11-05T05:19:29.228Z,0.95
2023-11-05T05:21:56.523Z,0.63
2023-11-05T05:24:24.895Z,0.60
2023-11-05T05:26:52.284Z,0.60
2023-11-05T05:29:19.573Z,0.68
2023-11-05T05:31:46.949Z,0.50
2023-11-05T05:34:14.330Z,0.65
2023-11-05T05:36:41.911Z,0.47
2023-11-05T05:39:09.424Z,0.50
2023-11-05T05:41:36.710Z,0.80
2023-11-05T05:44:04.108Z,0.63
2023-11-05T05:46:31.428Z,0.40
2023-11-05T05:48:58.832Z,0.50
2023-11-05T05:51:26.178Z,0.50
2023-11-05T05:53:53.569Z,0.60
2023-11-05T05:56:20.944Z,0.68
2023-11-05T05:58:48.805Z,0.30
2023-11-05T06:01:16.379Z,0.40
2023-11-05T06:03:43.839Z,0.43
2023-11-05T06:06:11.533Z,0.50
2023-11-05T06:08:39.056Z,0.47
2023-11-05T06:11:06.530Z,0.50
2023-11-05T06:13:33.934Z,0.50
2023-11-05T06:16:01.337Z,0.60
2023-11-05T06:18:28.714Z,0.50
2023-11-05T06:20:56.731Z,0.55
2023-11-05T06:23:24.972Z,0.40
2023-11-05T06:25:52.384Z,0.40
2023-11-05T06:28:19.744Z,0.40
2023-11-05T06:30:47.021Z,0.50
2023-11-05T06:33:14.800Z,0.47
2023-11-05T06:35:43.808Z,0.60
2023-11-05T06:38:11.078Z,0.40
2023-11-05T06:40:38.532Z,0.40
2023-11-05T06:43:05.881Z,0.60
2023-11-05T06:45:33.169Z,0.40
2023-11-05T06:48:00.503Z,0.40
2023-11-05T06:50:28.111Z,0.55
2023-11-05T06:52:55.504Z,0.60
2023-11-05T06:55:22.959Z,0.30
2023-11-05T06:57:50.354Z,0.40
2023-11-05T07:00:18.328Z,0.50
2023-11-05T07:02:45.686Z,0.43
2023-11-05T07:05:13.290Z,0.30
2023-11-05T07:07:42.958Z,0.60
2023-11-05T07:10:10.778Z,0.43
2023-11-05T07:12:42.621Z,0.50
2023-11-05T07:15:11.741Z,0.40
2023-11-05T07:17:39.663Z,0.40
2023-11-05T07:20:08.124Z,0.65
2023-11-05T07:22:35.761Z,0.47
2023-11-05T07:25:06.961Z,0.30
2023-11-05T07:27:34.459Z,0.40
2023-11-05T07:30:02.119Z,0.40
2023-11-05T07:32:29.817Z,0.50
2023-11-05T07:34:57.261Z,0.30
2023-11-05T07:37:26.989Z,0.30
2023-11-05T07:39:54.578Z,0.40
2023-11-05T07:42:22.631Z,0.55
2023-11-05T07:44:50.105Z,0.47
2023-11-05T07:47:17.477Z,0.40
2023-11-05T07:49:44.911Z,0.40
2023-11-05T07:52:12.314Z,0.43
2023-11-05T07:54:39.728Z,0.60
2023-11-05T07:57:07.218Z,0.70
2023-11-05T07:59:34.535Z,0.40
2023-11-05T08:02:01.901Z,0.50
2023-11-05T08:04:29.403Z,0.28
2023-11-05T08:06:57.494Z,0.47
2023-11-05T08:09:27.523Z,0.22
2023-11-05T08:11:55.494Z,0.40
2023-11-05T08:14:22.810Z,0.50
2023-11-05T08:16:51.735Z,0.47
2023-11-05T08:19:19.243Z,0.30
2023-11-05T08:21:46.692Z,0.30
2023-11-05T08:24:14.108Z,0.50
2023-11-05T08:26:41.479Z,0.32
2023-11-05T08:29:08.886Z,0.40
2023-11-05T08:31:36.572Z,0.30
2023-11-05T08:34:04.075Z,0.57
2023-11-05T08:36:31.400Z,0.55
2023-11-05T08:38:58.696Z,0.40
2023-11-05T08:41:26.074Z,0.32
2023-11-05T08:43:53.669Z,0.40
2023-11-05T08:46:21.062Z,0.40
2023-11-05T08:48:48.988Z,0.60
2023-11-05T08:51:29.241Z,0.65
2023-11-05T08:53:56.625Z,0.80
2023-11-05T08:56:26.922Z,0.68
2023-11-05T08:58:54.417Z,1.10
2023-11-05T09:01:21.974Z,0.70
2023-11-05T09:03:49.772Z,0.70
2023-11-05T09:06:17.548Z,0.65
2023-11-05T09:08:44.954Z,0.70
2023-11-05T09:11:12.577Z,0.77
2023-11-05T09:13:40.062Z,1.02
2023-11-05T09:16:07.634Z,0.88
2023-11-05T09:18:35.144Z,1.08
2023-11-05T09:21:03.701Z,0.80
2023-11-05T09:23:31.117Z,1.10
2023-11-05T09:25:59.335Z,1.02
2023-11-05T09:28:27.251Z,0.95
2023-11-05T09:30:55.041Z,0.80
2023-11-05T09:33:23.094Z,1.17
2023-11-05T09:35:50.505Z,1.00
2023-11-05T09:38:18.637Z,0.77
2023-11-05T09:40:48.750Z,0.90
2023-11-05T09:43:20.301Z,0.73
2023-11-05T09:45:50.811Z,0.88
2023-11-05T09:48:18.441Z,0.90
2023-11-05T09:50:46.281Z,0.65
2023-11-05T09:53:17.621Z,1.00
2023-11-05T09:55:48.599Z,2.53
2023-11-05T09:58:16.898Z,2.03
2023-11-05T10:00:45.181Z,2.65
2023-11-05T10:03:14.163Z,2.05
2023-11-05T10:05:45.918Z,2.25
2023-11-05T10:08:13.983Z,2.20
2023-11-05T10:10:45.671Z,1.70
2023-11-05T10:13:14.331Z,1.63
2023-11-05T10:15:43.805Z,1.30
2023-11-05T10:18:22.682Z,1.13
2023-11-05T10:20:54.018Z,1.58
2023-11-05T10:23:25.395Z,1.00
2023-11-05T10:25:54.519Z,0.95
2023-11-05T10:28:22.746Z,0.90
2023-11-05T10:30:54.365Z,1.00
2023-11-05T10:33:23.743Z,1.05
2023-11-05T10:35:52.659Z,1.00
2023-11-05T10:38:20.704Z,1.20
2023-11-05T10:40:49.033Z,1.10
2023-11-05T10:43:19.901Z,1.10
2023-11-05T10:45:50.654Z,1.20
2023-11-05T10:48:18.491Z,1.25
2023-11-05T10:50:47.854Z,1.50
2023-11-05T10:53:15.855Z,1.30
2023-11-05T10:55:45.029Z,1.40
2023-11-05T10:58:18.750Z,1.42
2023-11-05T11:00:59.606Z,2.00
2023-11-05T11:03:28.002Z,1.95
2023-11-05T11:06:00.377Z,1.52
2023-11-05T11:08:30.756Z,1.45
2023-11-05T11:11:15.841Z,1.10
2023-11-05T11:13:53.135Z,1.00
2023-11-05T11:16:26.549Z,0.90
2023-11-05T11:18:55.804Z,1.15
2023-11-05T11:21:25.195Z,0.93
2023-11-05T11:23:53.199Z,0.80
2023-11-05T11:26:23.786Z,0.77
2023-11-05T11:28:59.284Z,1.33
2023-11-05T11:31:28.888Z,0.85
2023-11-05T11:33:56.702Z,1.33
2023-11-05T11:36:25.184Z,1.80
2023-11-05T11:38:53.086Z,0.98
2023-11-05T11:41:20.464Z,1.38
2023-11-05T11:43:48.072Z,1.30
2023-11-05T11:46:24.397Z,1.25
2023-11-05T11:48:52.696Z,1.20
2023-11-05T11:51:21.546Z,0.82
2023-11-05T11:53:49.118Z,0.90
2023-11-05T11:56:16.616Z,0.80
2023-11-05T11:58:44.887Z,0.60
2023-11-05T12:01:15.173Z,0.60
2023-11-05T12:03:44.545Z,0.75
2023-11-05T12:06:13.303Z,0.70
2023-11-05T12:08:47.065Z,0.80
2023-11-05T12:11:18.147Z,1.00
2023-11-05T12:13:50.231Z,1.25
2023-11-05T12:16:18.899Z,1.30
2023-11-05T12:18:47.441Z,1.55
2023-11-05T12:21:16.238Z,1.30
2023-11-05T12:23:45.075Z,1.38
2023-11-05T12:26:16.470Z,1.48
2023-11-05T12:28:46.008Z,1.70
2023-11-05T12:31:16.732Z,1.20
2023-11-05T12:33:44.467Z,1.10
2023-11-05T12:36:12.107Z,1.30
2023-11-05T12:38:39.664Z,1.00
2023-11-05T12:41:07.776Z,1.20
2023-11-05T12:43:35.144Z,1.00
2023-11-05T12:46:02.712Z,1.15
2023-11-05T12:48:33.114Z,0.70
2023-11-05T12:51:05.155Z,0.70
2023-11-05T12:53:33.786Z,0.90
2023-11-05T12:56:11.419Z,1.00
2023-11-05T12:58:41.792Z,1.20
2023-11-05T13:01:12.280Z,1.00
2023-11-05T13:03:40.670Z,1.02
2023-11-05T13:06:09.954Z,1.35
2023-11-05T13:08:40.603Z,1.10
2023-11-05T13:11:09.159Z,1.45
2023-11-05T13:13:36.674Z,1.80
2023-11-05T13:16:05.196Z,2.08
2023-11-05T13:18:32.638Z,1.60
2023-11-05T13:20:59.956Z,1.83
2023-11-05T13:23:27.841Z,2.13
2023-11-05T13:25:55.531Z,1.95
2023-11-05T13:28:23.022Z,1.40
2023-11-05T13:30:50.639Z,2.15
2023-11-05T13:33:18.228Z,1.83
2023-11-05T13:35:47.960Z,2.50
2023-11-05T13:38:15.594Z,2.22
2023-11-05T13:40:43.163Z,1.70
2023-11-05T13:43:10.646Z,1.98
2023-11-05T13:45:38.045Z,1.67
2023-11-05T13:48:05.680Z,2.72
2023-11-05T13:50:33.014Z,2.15
2023-11-05T13:53:00.524Z,2.78
2023-11-05T13:55:28.063Z,2.08
2023-11-05T13:57:55.630Z,2.20
2023-11-05T14:00:23.769Z,2.25
2023-11-05T14:02:51.721Z,1.38
2023-11-05T14:05:19.450Z,2.47
2023-11-05T14:07:48.359Z,1.70
2023-11-05T14:10:16.488Z,2.00
2023-11-05T14:12:44.195Z,1.80
2023-11-05T14:15:11.586Z,2.00
2023-11-05T14:17:40.656Z,1.80
2023-11-05T14:20:11.564Z,1.40
2023-11-05T14:22:39.434Z,1.45
2023-11-05T14:25:08.931Z,1.35
2023-11-05T14:27:37.116Z,1.63
2023-11-05T14:30:05.919Z,1.35
2023-11-05T14:32:33.480Z,1.23
2023-11-05T14:35:02.765Z,1.63
2023-11-05T14:37:30.406Z,1.85
2023-11-05T14:39:58.029Z,1.40
2023-11-05T14:42:25.633Z,1.30
2023-11-05T14:44:53.116Z,1.40
2023-11-05T14:47:21.671Z,1.45
2023-11-05T14:49:51.240Z,1.63
2023-11-05T14:52:19.645Z,1.13
2023-11-05T14:54:47.160Z,1.33
2023-11-05T14:57:17.045Z,1.75
2023-11-05T14:59:44.729Z,1.67
2023-11-05T15:02:15.272Z,1.88
2023-11-05T15:04:42.846Z,1.42
2023-11-05T15:07:13.257Z,1.17
2023-11-05T15:09:40.753Z,1.50
2023-11-05T15:12:18.660Z,1.17
2023-11-05T15:14:46.954Z,1.95
2023-11-05T15:17:14.504Z,1.40
2023-11-05T15:19:42.043Z,1.02
2023-11-05T15:22:11.176Z,1.27
2023-11-05T15:24:38.581Z,1.30
2023-11-05T15:27:09.059Z,1.40
2023-11-05T15:29:39.002Z,1.45
2023-11-05T15:32:08.197Z,1.63
2023-11-05T15:34:35.918Z,1.88
2023-11-05T15:37:03.686Z,1.23
2023-11-05T15:39:31.254Z,1.40
2023-11-05T15:41:58.865Z,1.40
2023-11-05T15:44:32.299Z,1.20
2023-11-05T15:46:59.785Z,1.33
2023-11-05T15:49:28.354Z,1.70
2023-11-05T15:51:57.040Z,1.65
2023-11-05T15:54:24.352Z,1.40
2023-11-05T15:56:51.694Z,1.13
2023-11-05T15:59:19.499Z,1.58
2023-11-05T16:01:46.967Z,1.27
2023-11-05T16:04:15.001Z,1.23
2023-11-05T16:06:44.066Z,1.55
2023-11-05T16:09:12.549Z,1.40
2023-11-05T16:11:41.823Z,1.40
2023-11-05T16:14:09.844Z,1.67
2023-11-05T16:16:37.353Z,1.75
2023-11-05T16:19:05.330Z,1.58
2023-11-05T16:21:36.197Z,1.45
2023-11-05T16:24:04.295Z,2.03
2023-11-05T16:26:35.005Z,1.70
2023-11-05T16:29:02.792Z,1.55
2023-11-05T16:31:30.726Z,2.28
2023-11-05T16:33:58.357Z,1.75
2023-11-05T16:36:26.329Z,1.60
2023-11-05T16:38:58.390Z,1.98
2023-11-05T16:41:27.367Z,1.90
2023-11-05T16:43:54.884Z,1.90
2023-11-05T16:46:22.874Z,1.80
2023-11-05T16:48:50.338Z,2.03
2023-11-05T16:51:19.908Z,2.08
2023-11-05T16:53:47.946Z,1.77
2023-11-05T16:56:15.749Z,1.90
2023-11-05T16:58:43.336Z,1.60
2023-11-05T17:01:14.939Z,1.90
2023-11-05T17:03:42.723Z,1.95
2023-11-05T17:06:11.343Z,2.05
2023-11-05T17:08:38.843Z,2.13
2023-11-05T17:11:07.700Z,1.80
2023-11-05T17:13:35.244Z,2.03
2023-11-05T17:16:02.883Z,2.08
2023-11-05T17:18:30.335Z,1.70
2023-11-05T17:20:58.039Z,2.67
2023-11-05T17:23:25.385Z,2.00
2023-11-05T17:25:52.882Z,1.85
2023-11-05T17:28:22.445Z,2.05
2023-11-05T17:30:50.065Z,1.77
2023-11-05T17:33:17.753Z,1.67
2023-11-05T17:35:45.262Z,2.22
2023-11-05T17:38:14.529Z,1.73
2023-11-05T17:40:41.912Z,2.50
2023-11-05T17:43:10.134Z,2.00
2023-11-05T17:45:41.572Z,1.80
2023-11-05T17:48:12.106Z,1.98
2023-11-05T17:50:39.754Z,1.90
2023-11-05T17:53:07.080Z,2.25
2023-11-05T17:55:34.945Z,2.40
2023-11-05T17:58:02.207Z,1.77
2023-11-05T18:00:29.665Z,1.83
2023-11-05T18:02:57.746Z,1.95
2023-11-05T18:05:25.572Z,1.60
2023-11-05T18:07:55.256Z,1.98
2023-11-05T18:10:23.648Z,1.77
2023-11-05T18:12:50.941Z,1.95
2023-11-05T18:15:18.283Z,2.33
2023-11-05T18:17:46.183Z,1.75
2023-11-05T18:20:13.801Z,1.90
2023-11-05T18:22:41.783Z,1.98
2023-11-05T18:25:09.311Z,2.28
2023-11-05T18:27:36.839Z,2.30
2023-11-05T18:30:05.046Z,2.05
2023-11-05T18:32:32.660Z,2.08
2023-11-05T18:35:00.136Z,1.90
2023-11-05T18:37:27.758Z,2.05
2023-11-05T18:39:55.130Z,1.95
2023-11-05T18:42:22.556Z,2.28
2023-11-05T18:44:50.140Z,2.17
2023-11-05T18:47:17.526Z,1.75
2023-11-05T18:49:45.002Z,1.70
2023-11-05T18:52:14.699Z,2.33
2023-11-05T18:54:42.031Z,2.25
2023-11-05T18:57:09.540Z,2.50
2023-11-05T18:59:37.121Z,2.50
2023-11-05T19:02:04.694Z,2.25
2023-11-05T19:04:34.016Z,2.25
2023-11-05T19:07:01.445Z,1.90
2023-11-05T19:09:29.049Z,2.38
2023-11-05T19:11:57.021Z,1.92
2023-11-05T19:14:25.633Z,2.10
2023-11-05T19:16:53.486Z,2.25
2023-11-05T19:19:23.871Z,2.25
2023-11-05T19:21:51.228Z,2.30
2023-11-05T19:24:18.692Z,2.20
2023-11-05T19:26:46.130Z,2.17
2023-11-05T19:29:13.560Z,2.65
2023-11-05T19:31:40.999Z,2.28
2023-11-05T19:34:08.435Z,2.30
2023-11-05T19:36:36.039Z,1.90
2023-11-05T19:39:06.455Z,3.17
2023-11-05T19:41:37.437Z,2.20
2023-11-05T19:44:05.532Z,2.38
2023-11-05T19:46:33.040Z,2.70
2023-11-05T19:49:00.425Z,2.40
2023-11-05T19:51:34.887Z,2.60
2023-11-05T19:54:02.317Z,2.38
2023-11-05T19:56:29.748Z,2.20
2023-11-05T19:58:57.206Z,2.67
2023-11-05T20:01:24.499Z,2.45
2023-11-05T20:03:51.915Z,1.75
2023-11-05T20:06:20.211Z,2.20
2023-11-05T20:08:48.969Z,2.50
2023-11-05T20:11:17.027Z,2.05
2023-11-05T20:13:46.196Z,2.45
2023-11-05T20:16:15.218Z,2.17
2023-11-05T20:18:47.226Z,2.25
2023-11-05T20:21:15.271Z,2.28
2023-11-05T20:23:42.850Z,2.95
2023-11-05T20:26:10.319Z,2.88
2023-11-05T20:28:41.235Z,2.38
2023-11-05T20:31:10.807Z,2.50
2023-11-05T20:33:38.257Z,2.90
2023-11-05T20:36:06.633Z,3.05
2023-11-05T20:38:34.136Z,2.70
2023-11-05T20:41:01.630Z,2.78
2023-11-05T20:43:29.012Z,2.80
2023-11-05T20:45:56.301Z,2.60
2023-11-05T20:48:23.637Z,2.65
2023-11-05T20:50:51.097Z,2.33
2023-11-05T20:53:19.505Z,2.95
2023-11-05T20:55:47.147Z,2.70
2023-11-05T20:58:14.578Z,2.63
2023-11-05T21:00:41.880Z,2.70
2023-11-05T21:03:09.184Z,3.08
2023-11-05T21:05:38.390Z,3.35
2023-11-05T21:08:06.295Z,2.63
2023-11-05T21:10:43.338Z,2.53
2023-11-05T21:13:16.197Z,2.88
2023-11-05T21:15:43.577Z,2.58
2023-11-05T21:18:11.230Z,2.70
2023-11-05T21:20:38.773Z,2.80
2023-11-05T21:23:06.270Z,3.33
2023-11-05T21:25:33.877Z,2.20
2023-11-05T21:28:01.344Z,2.72
2023-11-05T21:30:28.824Z,2.65
2023-11-05T21:32:58.085Z,2.50
2023-11-05T21:35:25.897Z,2.42
2023-11-05T21:37:53.248Z,2.75
2023-11-05T21:40:22.198Z,2.72
2023-11-05T21:42:49.522Z,2.33
2023-11-05T21:45:20.180Z,2.85
2023-11-05T21:47:48.690Z,2.38
2023-11-05T21:50:16.196Z,2.67
2023-11-05T21:52:43.485Z,2.33
2023-11-05T21:55:10.849Z,2.70
2023-11-05T21:57:38.135Z,2.50
2023-11-05T22:00:06.208Z,2.38
2023-11-05T22:02:33.564Z,2.80
2023-11-05T22:05:01.033Z,2.63
2023-11-05T22:07:28.515Z,2.83
2023-11-05T22:09:55.881Z,2.65
2023-11-05T22:12:24.755Z,2.70
2023-11-05T22:14:52.233Z,3.13
2023-11-05T22:17:19.547Z,3.30
2023-11-05T22:19:47.636Z,2.92
2023-11-05T22:22:15.108Z,2.80
2023-11-05T22:24:42.434Z,2.33
2023-11-05T22:27:09.757Z,2.70
2023-11-05T22:29:37.062Z,2.97
2023-11-05T22:32:04.773Z,3.42
2023-11-05T22:34:32.218Z,2.85
2023-11-05T22:37:00.983Z,3.00
2023-11-05T22:39:28.322Z,2.72
2023-11-05T22:41:55.641Z,2.85
2023-11-05T22:44:23.104Z,2.75
2023-11-05T22:46:50.476Z,4.13
2023-11-05T22:49:23.005Z,3.25
2023-11-05T22:51:54.026Z,2.80
2023-11-05T22:54:21.680Z,2.78
2023-11-05T22:56:50.759Z,3.30
2023-11-05T22:59:18.206Z,3.70
2023-11-05T23:01:45.600Z,3.45
2023-11-05T23:04:12.985Z,3.15
2023-11-05T23:06:40.243Z,3.60
2023-11-05T23:09:07.705Z,3.00
2023-11-05T23:11:36.967Z,3.20
2023-11-05T23:14:04.870Z,3.05
2023-11-05T23:16:32.262Z,3.47
2023-11-05T23:18:59.534Z,2.85
2023-11-05T23:21:26.860Z,3.22
2023-11-05T23:23:54.200Z,3.20
2023-11-05T23:26:21.757Z,3.40
2023-11-05T23:28:49.369Z,4.00
2023-11-05T23:31:16.851Z,3.33
2023-11-05T23:33:44.758Z,3.67
2023-11-05T23:36:12.183Z,3.85
2023-11-05T23:38:40.478Z,3.22
2023-11-05T23:41:08.748Z,2.92
2023-11-05T23:43:37.096Z,3.35
2023-11-05T23:46:04.800Z,3.78
2023-11-05T23:48:32.238Z,3.33
2023-11-05T23:50:59.785Z,3.50
2023-11-05T23:53:27.370Z,2.95
2023-11-05T23:55:54.785Z,3.30
2023-11-05T23:58:22.200Z,2.95
